Time;durP1;ratioP1;P1;durP2;ratioP2;P2;SDS_P1;SDS_P2;PMS_P1;PMS_P2;Temp;Humidity;BMP_temperature;BMP_pressure;BME280_temperature;BME280_humidity;BME280_pressure;Samples;Min_cycle;Max_cycle;Signal;HPM_P1;HPM_P2
2023/04/13 00:02:25;;;;;;;3.23;0.80;;;;;;;-145.69;100.00;52420.63;5074321;28;20195;-81
2023/04/13 00:04:52;;;;;;;1.07;0.90;;;;;;;-145.69;100.00;52426.56;5073914;28;20221;-81
2023/04/13 00:07:21;;;;;;;0.90;0.90;;;;;;;-145.69;100.00;52440.44;5074077;28;20681;-80
2023/04/13 00:09:49;;;;;;;2.37;0.70;;;;;;;-145.69;100.00;52454.28;5074315;28;20229;-80
2023/04/13 00:12:20;;;;;;;0.77;0.77;;;;;;;-145.69;100.00;52430.53;5073725;28;20227;-81
2023/04/13 00:14:49;;;;;;;1.67;0.70;;;;;;;-145.69;100.00;52402.78;5074112;28;20199;-81
2023/04/13 00:17:16;;;;;;;1.97;0.90;;;;;;;-145.69;100.00;52416.66;5073623;28;20205;-81
2023/04/13 00:19:46;;;;;;;1.10;1.00;;;;;;;-145.69;100.00;52432.50;5074016;28;20564;-81
2023/04/13 00:22:14;;;;;;;1.77;0.90;;;;;;;-145.69;100.00;52428.53;5073277;28;20203;-80
2023/04/13 00:24:42;;;;;;;4.33;0.70;;;;;;;-145.69;100.00;52412.69;5073911;28;20715;-81
2023/04/13 00:27:09;;;;;;;0.67;0.67;;;;;;;-145.69;100.00;52464.19;5073219;28;20221;-81
2023/04/13 00:29:37;;;;;;;0.60;0.60;;;;;;;-145.69;100.00;52452.31;5073803;28;20206;-81
2023/04/13 00:32:04;;;;;;;2.10;0.90;;;;;;;-145.69;100.00;52452.31;5073732;28;20250;-81
2023/04/13 00:34:30;;;;;;;0.93;0.87;;;;;;;-145.69;100.00;52476.06;5073818;28;20210;-81
2023/04/13 00:36:57;;;;;;;0.60;0.60;;;;;;;-145.69;100.00;52420.63;5073744;28;20199;-80
2023/04/13 00:39:26;;;;;;;1.93;0.80;;;;;;;-145.69;100.00;52452.31;5073595;28;20649;-81
2023/04/13 00:41:53;;;;;;;1.93;0.80;;;;;;;-145.69;100.00;52450.31;5073082;28;20248;-81
2023/04/13 00:44:21;;;;;;;5.27;0.80;;;;;;;-145.69;100.00;52472.13;5073209;28;20235;-81
2023/04/13 00:46:53;;;;;;;2.20;0.90;;;;;;;-145.69;100.00;52414.69;5073558;28;20199;-81
2023/04/13 00:49:21;;;;;;;3.40;0.80;;;;;;;-145.69;100.00;52420.63;5057323;28;20199;-81
2023/04/13 00:51:47;;;;;;;2.37;0.80;;;;;;;-145.69;100.00;52440.44;5073177;28;20265;-81
2023/04/13 00:54:15;;;;;;;4.10;0.97;;;;;;;-145.69;100.00;52446.38;5073496;28;20202;-80
2023/04/13 00:56:42;;;;;;;0.90;0.90;;;;;;;-145.69;100.00;52468.16;5073225;28;20199;-80
2023/04/13 00:59:10;;;;;;;1.30;0.90;;;;;;;-145.69;100.00;52454.28;5073373;28;20659;-80
2023/04/13 01:01:45;;;;;;;1.10;0.80;;;;;;;-145.69;100.00;52406.75;5072610;28;20713;-81
2023/04/13 01:04:13;;;;;;;1.37;0.90;;;;;;;-145.69;100.00;52474.09;5073343;28;20717;-80
2023/04/13 01:06:43;;;;;;;1.30;0.93;;;;;;;-145.69;100.00;52440.44;5073029;28;20229;-80
2023/04/13 01:09:15;;;;;;;2.80;0.80;;;;;;;-145.69;100.00;52440.44;5073128;28;20256;-80
2023/04/13 01:11:48;;;;;;;2.57;1.13;;;;;;;-145.69;100.00;52420.63;5073176;28;20230;-80
2023/04/13 01:14:30;;;;;;;1.43;0.70;;;;;;;-145.69;100.00;52426.56;5068063;28;20218;-81
2023/04/13 01:17:01;;;;;;;1.17;0.80;;;;;;;-145.69;100.00;52434.47;5072917;28;20206;-80
2023/04/13 01:19:42;;;;;;;1.63;0.80;;;;;;;-145.69;100.00;52468.16;5072746;28;20203;-81
2023/04/13 01:22:13;;;;;;;1.00;0.90;;;;;;;-145.69;100.00;52444.38;5072922;28;20603;-80
2023/04/13 01:24:52;;;;;;;0.77;0.77;;;;;;;-145.69;100.00;52440.44;5072455;28;20230;-80
2023/04/13 01:27:30;;;;;;;5.57;1.00;;;;;;;-145.69;100.00;52444.38;5072927;28;20203;-80
2023/04/13 01:29:57;;;;;;;3.10;1.07;;;;;;;-145.69;100.00;52432.50;5072810;28;20203;-81
2023/04/13 01:32:24;;;;;;;2.20;0.90;;;;;;;-145.69;100.00;52452.31;5072562;28;20281;-80
2023/04/13 01:34:51;;;;;;;5.33;0.87;;;;;;;-145.69;100.00;52452.31;5073230;28;20285;-80
2023/04/13 01:37:18;;;;;;;4.43;0.93;;;;;;;-145.69;100.00;52458.25;5072872;28;20653;-80
2023/04/13 01:39:45;;;;;;;1.33;0.70;;;;;;;-145.69;100.00;52432.50;5072642;28;20201;-80
2023/04/13 01:42:12;;;;;;;3.30;0.67;;;;;;;-145.69;100.00;52458.25;5072397;28;20580;-80
2023/04/13 01:44:41;;;;;;;2.27;0.70;;;;;;;-145.69;100.00;52430.53;5072095;28;20264;-80
2023/04/13 01:47:14;;;;;;;1.20;0.70;;;;;;;-145.69;100.00;52464.19;5072913;28;20217;-80
2023/04/13 01:49:48;;;;;;;2.27;0.90;;;;;;;-145.69;100.00;52460.22;5072756;28;20252;-80
2023/04/13 01:52:16;;;;;;;1.33;0.80;;;;;;;-145.69;100.00;52480.03;5072533;28;20222;-80
2023/04/13 01:54:46;;;;;;;0.90;0.70;;;;;;;-145.69;100.00;52442.41;5072545;28;20680;-80
2023/04/13 01:57:14;;;;;;;0.70;0.70;;;;;;;-145.69;100.00;52474.09;5072395;28;20653;-80
2023/04/13 01:59:43;;;;;;;4.07;0.83;;;;;;;-145.69;100.00;52426.56;5071643;28;20211;-80
2023/04/13 02:02:15;;;;;;;0.83;0.67;;;;;;;-145.69;100.00;52432.50;5061421;28;20615;-80
2023/04/13 02:04:42;;;;;;;1.60;0.70;;;;;;;-145.69;100.00;52440.44;5072612;28;20206;-80
2023/04/13 02:07:09;;;;;;;0.90;0.80;;;;;;;-145.69;100.00;52452.31;5071740;28;20195;-80
2023/04/13 02:09:35;;;;;;;0.97;0.70;;;;;;;-145.69;100.00;52452.31;5072432;28;20210;-80
2023/04/13 02:12:02;;;;;;;3.03;0.80;;;;;;;-145.69;100.00;52452.31;5072274;28;20723;-80
2023/04/13 02:14:29;;;;;;;1.63;0.70;;;;;;;-145.69;100.00;52468.16;5072277;28;20195;-80
2023/04/13 02:16:57;;;;;;;1.13;0.70;;;;;;;-145.69;100.00;52444.38;5072167;28;20286;-80
2023/04/13 02:19:24;;;;;;;1.37;0.77;;;;;;;-145.69;100.00;52464.19;5071863;28;20230;-79
2023/04/13 02:21:52;;;;;;;0.73;0.70;;;;;;;-145.69;100.00;52452.31;5072008;28;20657;-80
2023/04/13 02:24:18;;;;;;;2.30;1.00;;;;;;;-145.69;100.00;52476.06;5072551;28;20746;-80
2023/04/13 02:26:45;;;;;;;6.23;1.00;;;;;;;-145.69;100.00;52448.34;5072304;28;20199;-80
2023/04/13 02:29:11;;;;;;;4.20;1.37;;;;;;;-145.69;100.00;52487.97;5072282;28;20560;-80
2023/04/13 02:31:42;;;;;;;2.80;1.20;;;;;;;-145.69;100.00;52448.34;5072348;28;20219;-80
2023/04/13 02:34:12;;;;;;;2.10;1.00;;;;;;;-145.69;100.00;52446.38;5072278;28;20199;-80
2023/04/13 02:36:39;;;;;;;2.93;0.97;;;;;;;-145.69;100.00;52444.38;5072043;28;20207;-79
2023/04/13 02:39:06;;;;;;;1.60;0.80;;;;;;;-145.69;100.00;52466.16;5072435;28;20293;-80
2023/04/13 02:41:33;;;;;;;1.73;0.90;;;;;;;-145.69;100.00;52442.41;5072024;28;20249;-80
2023/04/13 02:44:00;;;;;;;3.90;0.90;;;;;;;-145.69;100.00;52398.84;5072705;28;20233;-79
2023/04/13 02:46:26;;;;;;;1.77;0.83;;;;;;;-145.69;100.00;52420.63;5075861;28;20245;-80
2023/04/13 02:48:53;;;;;;;1.87;0.97;;;;;;;-145.69;100.00;52438.44;5075351;28;20195;-80
2023/04/13 02:51:21;;;;;;;1.93;0.90;;;;;;;-145.69;100.00;52446.38;5075949;28;20581;-80
2023/04/13 02:53:47;;;;;;;3.23;1.03;;;;;;;-145.69;100.00;52422.59;5075271;28;20202;-80
2023/04/13 02:56:14;;;;;;;1.37;0.80;;;;;;;-145.69;100.00;52456.28;5075537;28;20282;-80
2023/04/13 02:58:41;;;;;;;4.13;0.90;;;;;;;-145.69;100.00;52454.28;5075421;28;20204;-79
2023/04/13 03:01:09;;;;;;;2.97;0.90;;;;;;;-145.69;100.00;52460.22;5075549;28;20203;-80
2023/04/13 03:03:35;;;;;;;3.50;1.13;;;;;;;-145.69;100.00;52440.44;5075430;28;20218;-79
2023/04/13 03:06:02;;;;;;;4.93;1.30;;;;;;;-145.69;100.00;52444.38;5075621;28;20290;-80
2023/04/13 03:08:30;;;;;;;2.70;0.80;;;;;;;-145.69;100.00;52456.28;5075542;28;20596;-79
2023/04/13 03:10:57;;;;;;;4.53;1.03;;;;;;;-145.69;100.00;52412.69;5075213;28;20272;-80
2023/04/13 03:13:23;;;;;;;2.80;0.90;;;;;;;-145.69;100.00;52432.50;5075164;28;20203;-80
2023/04/13 03:15:50;;;;;;;3.90;1.00;;;;;;;-145.69;100.00;52442.41;5075051;28;20257;-79
2023/04/13 03:18:16;;;;;;;3.97;1.00;;;;;;;-145.69;100.00;52448.34;5074934;28;20195;-79
2023/04/13 03:20:43;;;;;;;4.20;1.20;;;;;;;-145.69;100.00;52466.16;5075346;28;20203;-80
2023/04/13 03:23:10;;;;;;;5.33;1.20;;;;;;;-145.69;100.00;52440.44;5075021;28;20198;-80
2023/04/13 03:25:41;;;;;;;2.03;0.80;;;;;;;-145.69;100.00;52444.38;5075179;28;20202;-80
2023/04/13 03:28:07;;;;;;;4.33;1.00;;;;;;;-145.69;100.00;52428.53;5074975;28;20206;-80
2023/04/13 03:30:37;;;;;;;11.07;1.40;;;;;;;-145.69;100.00;52448.34;5073736;28;20202;-80
2023/04/13 03:33:04;;;;;;;1.90;0.90;;;;;;;-145.69;100.00;52446.38;5074828;28;20227;-80
2023/04/13 03:35:30;;;;;;;2.50;0.93;;;;;;;-145.69;100.00;52426.56;5074770;28;20195;-80
2023/04/13 03:37:57;;;;;;;9.30;1.10;;;;;;;-145.69;100.00;52442.41;5074410;28;20673;-79
2023/04/13 03:40:23;;;;;;;3.43;1.00;;;;;;;-145.69;100.00;52454.28;5074714;28;20205;-80
2023/04/13 03:42:51;;;;;;;2.73;1.50;;;;;;;-145.69;100.00;52432.50;5070405;28;20194;-80
2023/04/13 03:45:18;;;;;;;4.13;1.30;;;;;;;-145.69;100.00;52424.59;5074681;28;20205;-79
2023/04/13 03:47:44;;;;;;;3.47;1.07;;;;;;;-145.69;100.00;52456.28;5074488;28;20198;-80
2023/04/13 03:50:11;;;;;;;4.20;1.43;;;;;;;-145.69;100.00;52428.53;5074594;28;20241;-79
2023/04/13 03:52:37;;;;;;;6.03;1.00;;;;;;;-145.69;100.00;52448.34;5074411;28;20226;-80
2023/04/13 03:55:05;;;;;;;2.63;1.20;;;;;;;-145.69;100.00;52428.53;5073951;28;20202;-80
2023/04/13 03:57:33;;;;;;;2.60;1.07;;;;;;;-145.69;100.00;52442.41;5074473;28;20669;-79
2023/04/13 04:00:01;;;;;;;1.47;0.70;;;;;;;-145.69;100.00;52448.34;5073914;28;20191;-80
2023/04/13 04:02:28;;;;;;;5.50;1.13;;;;;;;-145.69;100.00;52444.38;5074710;28;20199;-80
2023/04/13 04:04:54;;;;;;;0.70;0.70;;;;;;;-145.69;100.00;52430.53;5074574;28;20205;-80
2023/04/13 04:07:22;;;;;;;1.77;0.90;;;;;;;-145.69;100.00;52468.16;5074204;28;20656;-80
2023/04/13 04:09:48;;;;;;;2.87;0.90;;;;;;;-145.69;100.00;52432.50;5070240;28;20202;-80
2023/04/13 04:12:15;;;;;;;2.03;0.93;;;;;;;-145.69;100.00;52440.44;5073732;28;20225;-80
2023/04/13 04:14:41;;;;;;;4.93;1.10;;;;;;;-145.69;100.00;52468.16;5073976;28;20198;-80
2023/04/13 04:17:09;;;;;;;5.90;1.60;;;;;;;-145.69;100.00;52424.59;5074020;28;20654;-79
2023/04/13 04:19:35;;;;;;;1.90;0.93;;;;;;;-145.69;100.00;52452.31;5074144;28;20209;-79
2023/04/13 04:22:03;;;;;;;2.67;1.40;;;;;;;-145.69;100.00;52434.47;5074085;28;20214;-79
2023/04/13 04:24:29;;;;;;;2.23;0.83;;;;;;;-145.69;100.00;52444.38;5073990;28;20199;-80
2023/04/13 04:26:57;;;;;;;7.30;1.20;;;;;;;-145.69;100.00;52438.44;5072814;28;20681;-80
2023/04/13 04:29:32;;;;;;;4.87;1.53;;;;;;;-145.69;100.00;52456.28;5071583;28;20199;-80
2023/04/13 04:31:59;;;;;;;5.20;0.93;;;;;;;-145.69;100.00;52416.66;5069787;28;20623;-79
2023/04/13 04:34:27;;;;;;;3.73;1.07;;;;;;;-145.69;100.00;52460.22;5073704;28;20199;-80
2023/04/13 04:36:54;;;;;;;4.53;1.23;;;;;;;-145.69;100.00;52426.56;5073749;28;20199;-80
2023/04/13 04:39:22;;;;;;;3.13;1.20;;;;;;;-145.69;100.00;52450.31;5073229;28;20264;-79
2023/04/13 04:41:52;;;;;;;3.83;1.17;;;;;;;-145.69;100.00;52434.47;5073680;28;20608;-80
2023/04/13 04:44:19;;;;;;;4.40;1.07;;;;;;;-145.69;100.00;52404.78;5073537;28;20313;-80
2023/04/13 04:46:47;;;;;;;4.17;1.10;;;;;;;-145.69;100.00;52458.25;5073020;28;20256;-80
2023/04/13 04:49:14;;;;;;;6.97;1.33;;;;;;;-145.69;100.00;52432.50;5073313;28;20224;-79
2023/04/13 04:51:42;;;;;;;3.73;1.07;;;;;;;-145.69;100.00;52428.53;5073891;28;20209;-79
2023/04/13 04:54:09;;;;;;;2.57;0.73;;;;;;;-145.69;100.00;52396.84;5073182;28;20209;-80
2023/04/13 04:56:35;;;;;;;10.23;1.73;;;;;;;-145.69;100.00;52438.44;5073569;28;20293;-80
2023/04/13 04:59:02;;;;;;;4.57;1.50;;;;;;;-145.69;100.00;52456.28;5073062;28;20207;-79
2023/04/13 05:01:29;;;;;;;4.33;1.30;;;;;;;-145.69;100.00;52448.34;5073290;28;20565;-79
2023/04/13 05:03:56;;;;;;;9.70;2.07;;;;;;;-145.69;100.00;52448.34;5073155;28;20210;-80
2023/04/13 05:06:22;;;;;;;5.93;1.27;;;;;;;-145.69;100.00;52440.44;5072496;28;20210;-80
2023/04/13 05:08:50;;;;;;;5.57;1.10;;;;;;;-145.69;100.00;52446.38;5073116;28;20198;-80
2023/04/13 05:11:17;;;;;;;2.33;0.80;;;;;;;-145.69;100.00;52446.38;5073260;28;20198;-79
2023/04/13 05:13:43;;;;;;;15.77;1.50;;;;;;;-145.69;100.00;52424.59;5072861;28;20230;-80
2023/04/13 05:16:10;;;;;;;3.43;1.13;;;;;;;-145.69;100.00;52446.38;5073245;28;20198;-79
2023/04/13 05:18:44;;;;;;;3.23;1.10;;;;;;;-145.69;100.00;52414.69;5073224;28;20205;-80
2023/04/13 05:21:10;;;;;;;4.20;1.73;;;;;;;-145.69;100.00;52438.44;5072962;28;20206;-80
2023/04/13 05:23:37;;;;;;;4.23;1.40;;;;;;;-145.69;100.00;52446.38;5073333;28;20199;-80
2023/04/13 05:26:05;;;;;;;6.37;1.30;;;;;;;-145.69;100.00;52424.59;5073153;28;20209;-79
2023/04/13 05:28:33;;;;;;;3.50;1.27;;;;;;;-145.69;100.00;52432.50;5072172;28;20646;-80
2023/04/13 05:31:00;;;;;;;6.63;1.13;;;;;;;-145.69;100.00;52450.31;5073218;28;20268;-81
2023/04/13 05:33:27;;;;;;;2.53;1.13;;;;;;;-145.69;100.00;52460.22;5072605;28;20697;-80
2023/04/13 05:35:53;;;;;;;3.30;1.20;;;;;;;-145.69;100.00;52440.44;5072260;28;20214;-80
2023/04/13 05:38:20;;;;;;;4.67;1.70;;;;;;;-145.69;100.00;52420.63;5072809;28;20206;-80
2023/04/13 05:40:47;;;;;;;6.63;1.60;;;;;;;-145.69;100.00;52420.63;5072694;28;20210;-80
2023/04/13 05:43:15;;;;;;;7.43;1.30;;;;;;;-145.69;100.00;52414.69;5072768;28;20226;-80
2023/04/13 05:45:43;;;;;;;6.97;1.57;;;;;;;-145.69;100.00;52458.25;5072788;28;20237;-80
2023/04/13 05:48:09;;;;;;;3.83;1.20;;;;;;;-145.69;100.00;52452.31;5072193;28;20654;-80
2023/04/13 05:50:36;;;;;;;3.17;1.00;;;;;;;-145.69;100.00;52442.41;5072210;28;20187;-80
2023/04/13 05:53:04;;;;;;;10.90;2.10;;;;;;;-145.69;100.00;52440.44;5072657;28;20230;-80
2023/04/13 05:55:31;;;;;;;7.23;2.30;;;;;;;-145.69;100.00;52456.28;5072742;28;20205;-80
2023/04/13 05:57:57;;;;;;;4.47;1.20;;;;;;;-145.69;100.00;52438.44;5072230;28;20202;-80
2023/04/13 06:00:26;;;;;;;7.20;0.90;;;;;;;-145.69;100.00;52434.47;5067242;28;20199;-80
2023/04/13 06:02:53;;;;;;;5.37;2.13;;;;;;;-145.69;100.00;52432.50;5055128;28;20206;-80
2023/04/13 06:05:19;;;;;;;3.93;1.20;;;;;;;-145.69;100.00;52440.44;5072641;28;20275;-80
2023/04/13 06:07:46;;;;;;;3.37;1.33;;;;;;;-145.69;100.00;52448.34;5072583;28;20646;-80
2023/04/13 06:10:15;;;;;;;9.40;1.47;;;;;;;-145.69;100.00;52416.66;5072681;28;20209;-80
2023/04/13 06:12:47;;;;;;;11.30;2.37;;;;;;;-145.69;100.00;52408.75;5072529;28;20329;-80
2023/04/13 06:15:14;;;;;;;8.17;1.53;;;;;;;-145.69;100.00;52432.50;5072429;28;20210;-79
2023/04/13 06:17:42;;;;;;;15.10;2.50;;;;;;;-145.69;100.00;52448.34;5072419;28;20649;-79
2023/04/13 06:20:10;;;;;;;14.87;5.47;;;;;;;-145.69;100.00;52470.13;5074909;28;20195;-79
2023/04/13 06:22:36;;;;;;;9.27;3.40;;;;;;;-145.69;100.00;52410.72;5076466;28;20206;-80
2023/04/13 06:25:03;;;;;;;11.33;2.90;;;;;;;-145.69;100.00;52440.44;5076047;28;20199;-79
2023/04/13 06:27:32;;;;;;;11.97;4.20;;;;;;;-145.69;100.00;52436.47;5075774;28;20549;-80
2023/04/13 06:29:59;;;;;;;6.30;2.63;;;;;;;-145.69;100.00;52434.47;5076292;28;20203;-80
2023/04/13 06:32:25;;;;;;;9.60;2.13;;;;;;;-145.69;100.00;52428.53;5076097;28;20227;-80
2023/04/13 06:34:53;;;;;;;8.07;2.03;;;;;;;-145.69;100.00;52430.53;5075772;28;20206;-80
2023/04/13 06:37:20;;;;;;;4.37;1.33;;;;;;;-145.69;100.00;52426.56;5075346;28;20195;-80
2023/04/13 06:39:46;;;;;;;10.70;1.90;;;;;;;-145.69;100.00;52404.78;5075851;28;20194;-80
2023/04/13 06:42:14;;;;;;;10.13;3.97;;;;;;;-145.69;100.00;52432.50;5075569;28;20569;-80
2023/04/13 06:44:41;;;;;;;4.13;1.33;;;;;;;-145.69;100.00;52408.75;5075811;28;20309;-81
2023/04/13 06:47:07;;;;;;;4.57;1.83;;;;;;;-145.69;100.00;52408.75;5076068;28;20195;-80
2023/04/13 06:49:34;;;;;;;17.30;4.57;;;;;;;-145.69;100.00;52424.59;5075750;28;20205;-80
2023/04/13 06:52:01;;;;;;;11.50;2.67;;;;;;;-145.69;100.00;52420.63;5075206;28;20729;-80
2023/04/13 06:54:28;;;;;;;12.93;3.67;;;;;;;-145.69;100.00;52404.78;5075535;28;20298;-80
2023/04/13 06:56:55;;;;;;;15.53;2.30;;;;;;;-145.69;100.00;52402.78;5075110;28;20198;-80
2023/04/13 06:59:21;;;;;;;7.43;1.93;;;;;;;-145.69;100.00;52404.78;5075991;28;20256;-81
2023/04/13 07:01:48;;;;;;;5.47;2.10;;;;;;;-145.69;100.00;52446.38;5075515;28;20210;-81
2023/04/13 07:04:14;;;;;;;27.13;7.70;;;;;;;-145.69;100.00;52438.44;5075628;28;20206;-80
2023/04/13 07:06:41;;;;;;;14.47;4.13;;;;;;;-145.69;100.00;52436.47;5075148;28;20202;-81
2023/04/13 07:09:09;;;;;;;6.37;1.63;;;;;;;-145.69;100.00;52434.47;5075194;28;20195;-80
2023/04/13 07:11:35;;;;;;;8.37;1.30;;;;;;;-145.69;100.00;52406.75;5075885;28;20203;-79
2023/04/13 07:14:02;;;;;;;9.00;1.63;;;;;;;-145.69;100.00;52384.97;5075446;28;20230;-80
2023/04/13 07:16:29;;;;;;;9.73;1.43;;;;;;;-145.69;100.00;52444.38;5075176;28;20604;-80
2023/04/13 07:18:55;;;;;;;8.17;1.53;;;;;;;-145.69;100.00;52438.44;5075137;28;20202;-79
2023/04/13 07:21:22;;;;;;;6.30;1.53;;;;;;;-145.69;100.00;52414.69;5075076;28;20200;-77
2023/04/13 07:23:48;;;;;;;4.33;1.40;;;;;;;-145.69;100.00;52412.69;5075059;28;20209;-78
2023/04/13 07:26:17;;;;;;;4.43;1.50;;;;;;;-145.69;100.00;52418.63;5074725;28;20802;-79
2023/04/13 07:28:43;;;;;;;10.83;1.60;;;;;;;-145.69;100.00;52420.63;5075100;28;20199;-78
2023/04/13 07:31:10;;;;;;;6.07;1.40;;;;;;;-145.69;100.00;52394.88;5074769;28;20199;-79
2023/04/13 07:33:37;;;;;;;8.63;1.33;;;;;;;-145.69;100.00;52377.06;5074781;28;20234;-78
2023/04/13 07:36:04;;;;;;;7.50;1.47;;;;;;;-145.69;100.00;52379.03;5074914;28;20205;-78
2023/04/13 07:38:30;;;;;;;3.43;1.30;;;;;;;-145.69;100.00;52440.44;5074450;28;20195;-78
2023/04/13 07:40:57;;;;;;;7.40;1.43;;;;;;;-145.69;100.00;52388.94;5075114;28;20195;-78
2023/04/13 07:43:25;;;;;;;5.23;1.30;;;;;;;-145.69;100.00;52394.88;5074683;28;20237;-78
2023/04/13 07:45:52;;;;;;;5.67;1.47;;;;;;;-145.69;100.00;52400.81;5074937;28;20199;-78
2023/04/13 07:48:18;;;;;;;3.40;1.00;;;;;;;-145.69;100.00;52392.91;5074698;28;20225;-78
2023/04/13 07:50:45;;;;;;;5.27;1.20;;;;;;;-145.69;100.00;52384.97;5074655;28;20203;-79
2023/04/13 07:53:12;;;;;;;10.47;1.40;;;;;;;-145.69;98.57;52428.53;5073618;28;20581;-78
2023/04/13 07:55:38;;;;;;;5.57;1.40;;;;;;;-145.69;98.95;52396.84;5074917;28;20205;-78
2023/04/13 07:58:05;;;;;;;2.53;1.10;;;;;;;-145.69;100.00;52388.94;5074001;28;20195;-80
2023/04/13 08:00:33;;;;;;;7.33;1.47;;;;;;;-145.69;99.26;52428.53;5067033;28;20219;-79
2023/04/13 08:02:59;;;;;;;8.50;1.50;;;;;;;-145.69;99.82;52408.75;5054207;28;20203;-79
2023/04/13 08:05:26;;;;;;;7.17;1.40;;;;;;;-145.69;100.00;52381.00;5055574;28;20221;-79
2023/04/13 08:07:52;;;;;;;13.07;1.43;;;;;;;-145.69;100.00;52373.09;5071880;28;20206;-79
2023/04/13 08:10:19;;;;;;;5.10;1.40;;;;;;;-145.69;100.00;52412.69;5074026;28;20195;-79
2023/04/13 08:12:46;;;;;;;4.40;1.13;;;;;;;-145.69;100.00;52381.00;5074228;28;20234;-79
2023/04/13 08:15:13;;;;;;;11.57;2.30;;;;;;;-145.69;98.88;52404.78;5072873;28;20434;-78
2023/04/13 08:17:41;;;;;;;7.60;1.47;;;;;;;-145.69;100.00;52418.63;5073890;28;20240;-80
2023/04/13 08:20:09;;;;;;;8.33;1.30;;;;;;;-145.69;100.00;52402.78;5074069;28;20210;-79
2023/04/13 08:22:36;;;;;;;6.97;1.30;;;;;;;-145.69;99.54;52418.63;5074051;28;20195;-79
2023/04/13 08:25:03;;;;;;;4.20;1.10;;;;;;;-145.69;96.12;52383.00;5073900;28;20249;-79
2023/04/13 08:27:33;;;;;;;6.03;1.40;;;;;;;-145.69;98.74;52408.75;5073578;28;20620;-79
2023/04/13 08:30:00;;;;;;;10.17;2.00;;;;;;;-145.69;94.04;52412.69;5073967;28;20209;-79
2023/04/13 08:32:27;;;;;;;14.97;1.50;;;;;;;-145.69;97.05;52402.78;5073970;28;20238;-78
2023/04/13 08:34:55;;;;;;;9.00;1.53;;;;;;;-145.69;98.14;52424.59;5073559;28;20314;-78
2023/04/13 08:37:23;;;;;;;8.47;1.40;;;;;;;-145.69;88.93;52420.63;5073438;28;20596;-78
2023/04/13 08:39:55;;;;;;;8.33;1.40;;;;;;;-145.69;93.78;52410.72;5073678;28;20680;-77
2023/04/13 08:42:24;;;;;;;9.10;1.20;;;;;;;-145.69;92.05;52396.84;5072713;28;20238;-79
2023/04/13 08:44:52;;;;;;;8.47;1.60;;;;;;;-145.69;86.84;52432.50;5073555;28;20230;-78
2023/04/13 08:47:18;;;;;;;6.43;1.33;;;;;;;-145.69;91.45;52408.75;5073425;28;20205;-77
2023/04/13 08:49:47;;;;;;;5.27;1.50;;;;;;;-145.69;94.43;52363.19;5073871;28;20209;-78
2023/04/13 08:52:15;;;;;;;4.03;1.13;;;;;;;-145.69;95.65;52371.13;5073278;28;20297;-79
2023/04/13 08:54:42;;;;;;;7.27;1.40;;;;;;;-145.69;94.17;52373.09;5073502;28;20238;-77
2023/04/13 08:57:11;;;;;;;6.83;1.60;;;;;;;-145.69;91.98;52379.03;5072750;28;20199;-77
2023/04/13 08:59:40;;;;;;;3.33;1.03;;;;;;;-145.69;95.21;52428.53;5073138;28;20260;-77
2023/04/13 09:02:08;;;;;;;5.93;1.50;;;;;;;-145.69;93.89;52373.09;5073148;28;20198;-78
2023/04/13 09:04:37;;;;;;;8.17;1.57;;;;;;;-145.69;92.83;52384.97;5073198;28;20207;-77
2023/04/13 09:07:05;;;;;;;8.20;1.50;;;;;;;-145.69;88.28;52390.91;5073320;28;20676;-77
2023/04/13 09:09:38;;;;;;;5.13;1.07;;;;;;;-145.69;89.02;52359.22;5073175;28;20233;-78
2023/04/13 09:12:05;;;;;;;7.33;1.57;;;;;;;-145.69;90.66;52384.97;5073214;28;20198;-77
2023/04/13 09:14:31;;;;;;;6.30;1.73;;;;;;;-145.69;96.80;52388.94;5072383;28;20226;-78
2023/04/13 09:17:01;;;;;;;48.47;13.90;;;;;;;-145.69;91.92;52386.97;5073114;28;20198;-78
2023/04/13 09:19:31;;;;;;;8.80;2.33;;;;;;;-145.69;89.43;52386.97;5072758;28;20645;-78
2023/04/13 09:22:11;;;;;;;5.13;2.20;;;;;;;-145.69;91.59;52396.84;5073179;28;20221;-78
2023/04/13 09:24:41;;;;;;;8.67;1.47;;;;;;;-145.69;97.10;52396.84;5072502;28;20202;-77
2023/04/13 09:27:17;;;;;;;8.47;2.07;;;;;;;-145.69;93.24;52377.06;5073251;28;20201;-77
2023/04/13 09:29:49;;;;;;;8.20;1.73;;;;;;;-145.69;97.27;52404.78;5070570;28;20265;-78
2023/04/13 09:32:20;;;;;;;9.33;1.67;;;;;;;-145.69;93.08;52379.03;5073009;28;20252;-77
2023/04/13 09:34:57;;;;;;;5.37;1.47;;;;;;;-145.69;94.01;52375.06;5072344;28;20868;-78
2023/04/13 09:37:24;;;;;;;6.93;1.40;;;;;;;-145.69;88.79;52406.75;5072786;28;20198;-77
2023/04/13 09:39:52;;;;;;;8.43;1.30;;;;;;;-145.69;85.10;52371.13;5072587;28;20199;-77
2023/04/13 09:42:21;;;;;;;11.32;1.67;;;;;;;-145.69;89.21;52402.78;5071906;28;20521;-78
2023/04/13 09:44:56;;;;;;;7.20;1.40;;;;;;;-145.69;87.85;52408.75;5072526;28;20277;-77
2023/04/13 09:47:23;;;;;;;11.10;1.30;;;;;;;-145.69;85.31;52394.88;5073091;28;20198;-77
2023/04/13 09:49:50;;;;;;;11.40;1.63;;;;;;;-145.69;89.99;52383.00;5072733;28;20199;-78
2023/04/13 09:52:21;;;;;;;7.10;1.60;;;;;;;-145.69;89.10;52396.84;5073174;28;20217;-77
2023/04/13 09:54:54;;;;;;;6.03;1.40;;;;;;;-145.69;85.33;52375.06;5076668;28;20268;-78
2023/04/13 09:57:24;;;;;;;3.40;1.20;;;;;;;-145.69;80.08;52353.28;5077015;28;20203;-78
2023/04/13 09:59:55;;;;;;;9.00;1.30;;;;;;;-145.69;77.07;52400.81;5076601;28;20230;-77
2023/04/13 10:02:22;;;;;;;8.43;1.70;;;;;;;-145.69;79.48;52365.16;5074639;28;20867;-78
2023/04/13 10:04:50;;;;;;;8.00;1.33;;;;;;;-145.69;81.84;52349.31;5077187;28;20620;-77
2023/04/13 10:07:18;;;;;;;6.43;1.33;;;;;;;-145.69;84.04;52392.91;5076844;28;20281;-78
2023/04/13 10:09:45;;;;;;;7.60;1.67;;;;;;;-145.69;83.06;52392.91;5077418;28;20233;-78
2023/04/13 10:12:16;;;;;;;5.83;1.30;;;;;;;-145.69;86.01;52353.28;5077187;28;20209;-77
2023/04/13 10:14:47;;;;;;;6.23;1.67;;;;;;;-145.69;88.92;52361.22;5076691;28;20261;-77
2023/04/13 10:17:26;;;;;;;10.47;1.83;;;;;;;-145.69;90.04;52377.06;5076420;28;20194;-77
2023/04/13 10:19:55;;;;;;;5.37;1.50;;;;;;;-145.69;90.55;52384.97;5076477;28;20190;-78
2023/04/13 10:22:22;;;;;;;8.37;1.60;;;;;;;-145.69;89.79;52369.13;5076161;28;20194;-78
2023/04/13 10:24:50;;;;;;;2.30;0.90;;;;;;;-145.69;95.92;52390.91;5076383;28;20203;-77
2023/04/13 10:27:22;;;;;;;8.90;1.90;;;;;;;-145.69;98.45;52410.72;5075894;28;20700;-76
2023/04/13 10:29:49;;;;;;;3.63;1.17;;;;;;;-145.69;95.47;52381.00;5075971;28;20195;-77
2023/04/13 10:32:26;;;;;;;3.60;1.40;;;;;;;-145.69;97.52;52402.78;5076269;28;20276;-78
2023/04/13 10:34:55;;;;;;;4.83;1.67;;;;;;;-145.69;96.40;52408.75;5076317;28;20312;-78
2023/04/13 10:37:24;;;;;;;6.97;1.43;;;;;;;-145.69;85.85;52384.97;5076146;28;20191;-78
2023/04/13 10:40:05;;;;;;;4.10;1.60;;;;;;;-145.69;85.17;52404.78;5075897;28;20260;-78
2023/04/13 10:42:42;;;;;;;4.00;1.60;;;;;;;-145.69;89.01;52412.69;5075984;28;20209;-78
2023/04/13 10:45:17;;;;;;;11.43;1.40;;;;;;;-145.69;83.97;52384.97;5075904;28;20213;-78
2023/04/13 10:47:43;;;;;;;6.90;1.50;;;;;;;-145.69;84.74;52388.94;5075832;28;20194;-78
2023/04/13 10:50:17;;;;;;;6.47;2.10;;;;;;;-145.69;81.05;52392.91;5075661;28;20530;-78
2023/04/13 10:52:56;;;;;;;5.67;1.30;;;;;;;-145.69;75.79;52375.06;5075822;28;20708;-77
2023/04/13 10:55:27;;;;;;;8.10;1.30;;;;;;;-145.69;85.89;52390.91;5075843;28;20237;-78
2023/04/13 10:57:58;;;;;;;4.90;1.23;;;;;;;-145.69;79.90;52361.22;5075370;28;20194;-78
2023/04/13 11:00:26;;;;;;;6.20;1.47;;;;;;;-145.69;82.17;52390.91;5075792;28;20661;-78
2023/04/13 11:02:57;;;;;;;4.10;1.50;;;;;;;-145.69;80.03;52355.28;5075672;28;20207;-78
2023/04/13 11:05:26;;;;;;;6.10;1.70;;;;;;;-145.69;81.57;52375.06;5074921;28;20297;-77
2023/04/13 11:07:53;;;;;;;2.40;1.03;;;;;;;-145.69;74.78;52357.25;5075357;28;20305;-77
2023/04/13 11:10:24;;;;;;;6.67;1.70;;;;;;;-145.69;77.99;52347.34;5075571;28;20202;-77
2023/04/13 11:12:51;;;;;;;3.93;0.90;;;;;;;-145.69;68.44;52333.47;5075283;28;20222;-77
2023/04/13 11:15:23;;;;;;;5.47;1.13;;;;;;;-145.69;73.38;52345.38;5075162;28;20234;-77